createdAt,value
2023-04-21T05:48:01.660Z,12.50
2023-04-21T05:49:26.202Z,8.59
2023-04-21T05:50:47.661Z,9.25
2023-04-21T05:52:11.576Z,13.74
2023-04-21T05:53:34.226Z,15.68
2023-04-21T05:54:56.528Z,9.63
2023-04-21T05:57:42.849Z,11.51
2023-04-21T05:59:05.750Z,13.04
2023-04-21T06:00:28.054Z,11.09
2023-04-21T06:01:51.080Z,7.31
2023-04-21T06:03:12.655Z,9.01
2023-04-21T06:04:35.763Z,8.03
2023-04-21T06:05:59.043Z,7.27
2023-04-21T06:07:21.669Z,10.32
2023-04-21T06:08:46.207Z,8.44
2023-04-21T06:10:22.286Z,9.44
2023-04-21T06:11:53.914Z,7.82
2023-04-21T06:15:16.064Z,7.78
2023-04-21T06:20:19.528Z,6.73
2023-04-21T06:22:03.410Z,9.87
2023-04-21T06:23:26.483Z,7.83
2023-04-21T06:26:34.809Z,7.63
2023-04-21T06:27:56.990Z,7.56
2023-04-21T06:31:06.210Z,13.41
2023-04-21T06:39:33.006Z,9.60
2023-04-21T06:40:54.948Z,11.39
2023-04-21T06:42:20.380Z,9.97
2023-04-21T06:44:06.504Z,12.13
2023-04-21T06:45:38.792Z,15.60
2023-04-21T06:47:08.642Z,16.43
2023-04-21T06:48:35.837Z,12.87
2023-04-21T06:49:57.737Z,9.83
2023-04-21T06:51:23.320Z,12.41
2023-04-21T06:52:49.524Z,14.83
2023-04-21T06:54:18.347Z,9.62
2023-04-21T06:55:57.928Z,10.89
2023-04-21T06:57:30.109Z,12.28
2023-04-21T06:58:53.453Z,9.16
2023-04-21T07:00:19.703Z,14.63
2023-04-21T07:01:59.920Z,15.77
2023-04-21T07:03:39.674Z,8.39
2023-04-21T07:05:07.821Z,12.07
2023-04-21T07:06:31.839Z,10.64
2023-04-21T07:08:14.682Z,13.31
2023-04-21T07:09:41.336Z,9.67
2023-04-21T07:11:09.034Z,12.43
2023-04-21T07:14:19.162Z,13.86
2023-04-21T07:15:45.440Z,10.39
2023-04-21T07:17:08.884Z,13.36
2023-04-21T07:18:31.061Z,9.88
2023-04-21T07:19:55.942Z,12.01
2023-04-21T07:21:20.375Z,13.34
2023-04-21T07:22:43.582Z,9.02
2023-04-21T07:24:05.908Z,11.21
2023-04-21T07:25:28.366Z,8.74
2023-04-21T07:26:54.583Z,9.66
2023-04-21T07:28:22.321Z,15.13
2023-04-21T07:41:48.948Z,10.66
2023-04-21T07:43:10.761Z,8.57
2023-04-21T08:09:51.676Z,16.66
2023-04-21T08:12:50.516Z,9.53
2023-04-21T08:14:13.603Z,28.87
2023-04-21T08:15:35.825Z,25.80
2023-04-21T08:16:58.782Z,30.04
2023-04-21T08:19:45.878Z,29.53
2023-04-21T08:21:11.606Z,9.69
2023-04-21T08:22:33.774Z,13.51
2023-04-21T08:23:59.630Z,11.64
2023-04-21T08:25:34.952Z,9.37
2023-04-21T08:26:59.460Z,11.14
2023-04-21T08:30:15.098Z,9.66
2023-04-21T08:31:36.660Z,8.37
2023-04-21T08:34:02.026Z,9.90
2023-04-21T08:35:19.193Z,10.57
2023-04-21T08:49:07.402Z,12.98
2023-04-21T08:52:12.961Z,10.43
2023-04-21T08:55:04.137Z,10.03
2023-04-21T08:56:30.624Z,9.67
2023-04-21T08:57:53.450Z,10.97
2023-04-21T08:59:16.457Z,17.77
2023-04-21T09:00:45.122Z,18.27
2023-04-21T09:02:16.367Z,15.55
2023-04-21T09:03:39.416Z,10.50
2023-04-21T09:16:08.715Z,9.77
2023-04-21T09:29:39.894Z,10.32
2023-04-21T09:32:24.034Z,43.69
2023-04-21T09:33:58.429Z,12.11
2023-04-21T09:35:38.475Z,8.62
2023-04-21T09:37:10.070Z,11.46
2023-04-21T09:38:34.463Z,9.09
2023-04-21T09:40:05.081Z,14.85
2023-04-21T09:41:26.545Z,17.57
2023-04-21T09:42:49.804Z,10.15
2023-04-21T09:44:14.222Z,18.04
2023-04-21T09:45:40.282Z,13.72
2023-04-21T09:47:01.198Z,8.74
2023-04-21T09:48:26.814Z,10.03
2023-04-21T09:52:34.845Z,16.01
2023-04-21T09:54:03.930Z,12.15
2023-04-21T09:55:30.871Z,8.93
2023-04-21T09:56:57.709Z,10.02
2023-04-21T09:58:24.103Z,7.93
2023-04-21T09:59:48.663Z,14.43
2023-04-21T10:01:14.497Z,9.82
2023-04-21T10:54:53.549Z,13.13
2023-04-21T10:57:36.382Z,12.21
2023-04-21T10:59:00.172Z,12.38
2023-04-21T11:00:23.034Z,8.61
2023-04-21T11:01:45.842Z,11.57
2023-04-21T11:03:08.614Z,10.34
2023-04-21T11:04:34.518Z,15.62
2023-04-21T11:05:56.004Z,12.65
2023-04-21T11:07:24.462Z,7.88
2023-04-21T11:08:57.511Z,8.35
2023-04-21T11:10:19.867Z,14.56
2023-04-21T11:11:42.303Z,11.48
2023-04-21T11:13:03.730Z,6.80
2023-04-21T11:14:26.432Z,6.62
2023-04-21T11:16:05.457Z,8.27
2023-04-21T11:17:29.280Z,6.57
2023-04-21T11:22:06.906Z,9.68
2023-04-21T11:23:54.233Z,8.19
2023-04-21T11:25:19.022Z,9.08
2023-04-21T11:26:42.027Z,9.14
2023-04-21T11:28:04.160Z,10.97
2023-04-21T11:29:26.952Z,18.77
2023-04-21T11:34:24.461Z,14.33
2023-04-21T11:36:04.705Z,10.47
2023-04-21T11:37:43.194Z,10.40
2023-04-21T11:39:21.362Z,9.41
2023-04-21T11:57:14.281Z,6.08
2023-04-21T12:11:35.430Z,8.98
2023-04-21T12:13:03.041Z,18.82
2023-04-21T12:25:29.505Z,7.67
2023-04-21T12:30:49.775Z,7.49
2023-04-21T13:00:36.823Z,5.38
2023-04-21T16:33:39.007Z,14.76
2023-04-21T16:35:19.033Z,12.06
2023-04-21T18:20:41.713Z,9.70
2023-04-21T18:23:56.191Z,17.29
2023-04-21T18:25:27.254Z,13.60
2023-04-21T18:26:52.732Z,17.36
2023-04-21T18:28:24.326Z,18.90
2023-04-21T18:31:39.894Z,17.09
2023-04-21T18:34:54.677Z,18.13
2023-04-21T18:36:26.188Z,15.36
2023-04-21T18:39:32.849Z,14.98
2023-04-21T18:41:04.585Z,14.21
2023-04-21T18:44:17.199Z,12.07
2023-04-21T18:45:43.039Z,11.69
2023-04-21T18:48:49.638Z,15.73
2023-04-21T18:50:13.945Z,18.29
2023-04-21T18:51:40.124Z,15.48
2023-04-21T18:53:02.186Z,20.53
2023-04-21T18:54:25.982Z,23.67
2023-04-21T18:55:52.359Z,16.60
2023-04-21T18:57:30.878Z,18.58
2023-04-21T18:59:14.947Z,15.30
2023-04-21T19:02:36.373Z,20.30
2023-04-21T19:04:08.988Z,14.51
2023-04-21T19:07:23.560Z,16.18
2023-04-21T19:08:46.744Z,16.83
2023-04-21T19:10:11.493Z,16.77
2023-04-21T19:11:36.256Z,16.53
2023-04-21T19:13:01.728Z,18.14
2023-04-21T19:14:46.452Z,18.02
2023-04-21T19:16:02.942Z,20.93
2023-04-21T19:17:34.122Z,37.67
2023-04-21T19:18:59.031Z,28.88
2023-04-21T19:20:31.122Z,32.01
2023-04-21T19:21:53.653Z,33.59
2023-04-21T19:23:17.307Z,27.83
2023-04-21T19:24:41.494Z,25.22
2023-04-21T19:26:04.757Z,26.18
2023-04-21T19:27:43.123Z,27.23
2023-04-21T19:29:08.873Z,24.84
2023-04-21T19:30:35.932Z,24.84
2023-04-21T19:32:03.262Z,26.71
2023-04-21T19:33:26.090Z,25.13
2023-04-21T19:34:49.496Z,27.38
2023-04-21T19:36:14.073Z,21.18
2023-04-21T19:39:21.888Z,23.39
2023-04-21T19:40:43.971Z,21.59
2023-04-21T19:42:07.432Z,22.15
2023-04-21T19:43:30.113Z,20.77
2023-04-21T19:44:54.166Z,20.89
2023-04-21T19:46:18.563Z,21.68
2023-04-21T19:47:42.060Z,23.42
2023-04-21T19:49:10.972Z,22.33
2023-04-21T19:50:34.380Z,26.46
2023-04-21T19:51:57.494Z,32.12
2023-04-21T19:53:22.930Z,32.24
2023-04-21T19:54:47.519Z,31.53
2023-04-21T19:56:10.786Z,28.83
2023-04-21T19:57:32.527Z,34.13
2023-04-21T19:58:57.309Z,35.68
2023-04-21T20:04:53.552Z,24.92
2023-04-21T20:06:18.121Z,27.61
2023-04-21T20:07:40.816Z,33.66
2023-04-21T20:09:03.303Z,21.96
2023-04-21T20:10:27.104Z,25.91
2023-04-21T20:13:30.844Z,20.67
2023-04-21T20:17:27.092Z,18.57
2023-04-21T20:18:49.321Z,17.22
2023-04-21T20:20:14.424Z,16.30
2023-04-21T20:21:36.932Z,30.81
2023-04-21T20:22:59.044Z,20.71
2023-04-21T20:24:22.386Z,25.77
2023-04-21T20:25:43.855Z,24.19
2023-04-21T20:27:08.534Z,21.24
2023-04-21T20:28:29.423Z,20.48
2023-04-21T20:29:52.263Z,26.22
2023-04-21T20:31:14.518Z,21.65
2023-04-21T20:32:36.864Z,20.27
2023-04-21T20:34:01.978Z,20.66
2023-04-21T20:35:24.322Z,19.50
2023-04-21T20:36:47.108Z,18.20
2023-04-21T20:38:19.980Z,27.26
2023-04-21T20:40:01.157Z,17.23
2023-04-21T20:41:28.288Z,22.42
2023-04-21T20:42:51.220Z,21.16
2023-04-21T20:44:13.688Z,23.39
2023-04-21T20:45:37.337Z,16.93
2023-04-21T20:47:02.881Z,18.56
2023-04-21T20:48:25.261Z,16.58
2023-04-21T20:49:48.967Z,25.53
2023-04-21T20:51:11.158Z,17.32
2023-04-21T20:52:41.010Z,12.73
2023-04-21T20:54:05.647Z,16.47
2023-04-21T20:55:28.722Z,14.81
2023-04-21T20:56:50.791Z,11.33
2023-04-21T20:58:22.332Z,12.44
2023-04-21T20:59:51.617Z,11.82
2023-04-21T21:01:14.890Z,19.06
2023-04-21T21:02:43.274Z,13.90
2023-04-21T21:04:05.923Z,13.08
2023-04-21T21:05:32.043Z,12.77
2023-04-21T21:06:54.404Z,20.88
2023-04-21T21:08:18.295Z,15.64
2023-04-21T21:09:41.361Z,13.07
2023-04-21T21:12:27.144Z,14.51
2023-04-21T21:13:49.743Z,17.91
2023-04-21T21:15:12.815Z,21.62
2023-04-21T21:16:37.282Z,18.67
2023-04-21T21:17:59.371Z,19.96
2023-04-21T21:19:21.872Z,17.74
2023-04-21T21:20:43.821Z,15.72
2023-04-21T21:22:06.356Z,17.98
2023-04-21T21:24:51.805Z,19.02
2023-04-21T21:26:13.340Z,18.44
2023-04-21T21:27:34.772Z,16.11
2023-04-21T21:28:58.122Z,14.48
2023-04-21T21:30:19.662Z,11.25
2023-04-21T21:31:41.716Z,13.62
2023-04-21T21:33:03.754Z,16.36
2023-04-21T21:34:27.201Z,13.96
2023-04-21T21:35:49.134Z,12.28
2023-04-21T21:37:11.094Z,12.58
2023-04-21T21:38:35.656Z,11.82
2023-04-21T21:39:57.671Z,11.64
2023-04-21T21:41:21.655Z,10.99
2023-04-21T21:42:46.677Z,15.21
2023-04-21T21:44:08.915Z,14.76
2023-04-21T21:45:30.728Z,10.66
2023-04-21T21:46:52.793Z,16.08
2023-04-21T21:48:15.517Z,11.02
2023-04-21T21:49:38.889Z,15.84
2023-04-21T21:51:02.485Z,13.12
2023-04-21T21:52:24.574Z,14.54
2023-04-21T21:53:46.697Z,14.21
2023-04-21T21:55:12.116Z,16.36
2023-04-21T21:56:34.317Z,15.33
2023-04-21T21:57:56.302Z,13.54
2023-04-21T21:59:18.666Z,11.27
2023-04-21T22:00:41.412Z,10.37
2023-04-21T22:02:03.383Z,21.63
2023-04-21T22:03:25.075Z,21.22
2023-04-21T22:04:47.104Z,25.04
2023-04-21T22:06:11.142Z,18.54
2023-04-21T22:07:33.906Z,13.01
2023-04-21T22:08:55.662Z,16.68
2023-04-21T22:10:19.082Z,16.50
2023-04-21T22:11:41.780Z,15.77
2023-04-21T22:13:04.454Z,11.06
2023-04-21T22:14:27.206Z,9.35
2023-04-21T22:17:11.174Z,12.40
2023-04-21T22:18:33.444Z,16.39
2023-04-21T22:19:55.641Z,11.88
2023-04-21T22:21:18.128Z,11.91
2023-04-21T22:22:39.996Z,10.76
2023-04-21T22:24:01.846Z,11.60
2023-04-21T22:25:23.127Z,12.33
2023-04-21T22:26:45.882Z,15.64
2023-04-21T22:28:09.213Z,11.36
2023-04-21T22:29:30.640Z,15.93
2023-04-21T22:30:53.357Z,12.72
2023-04-21T22:32:16.129Z,12.72
2023-04-21T22:33:38.748Z,15.82
2023-04-21T22:35:01.508Z,12.19
2023-04-21T22:36:23.439Z,13.89
2023-04-21T22:37:45.329Z,10.00
2023-04-21T22:39:06.982Z,12.38
2023-04-21T22:40:28.966Z,8.28
2023-04-21T22:41:51.634Z,12.96
2023-04-21T22:43:13.988Z,13.85
2023-04-21T22:44:36.699Z,12.24
2023-04-21T22:45:59.399Z,14.07
2023-04-21T22:47:22.685Z,11.36
2023-04-21T22:48:44.755Z,14.70
2023-04-21T22:50:08.289Z,14.67
2023-04-21T22:51:29.757Z,13.76
2023-04-21T22:52:52.755Z,12.62
2023-04-21T22:55:37.922Z,12.60
2023-04-21T22:57:00.329Z,11.76
2023-04-21T22:58:22.463Z,12.98
2023-04-21T22:59:44.714Z,12.23
2023-04-21T23:01:06.648Z,14.23
2023-04-21T23:02:28.389Z,12.97
2023-04-21T23:03:50.658Z,12.10
2023-04-21T23:05:13.509Z,13.14
2023-04-21T23:06:35.479Z,16.31
2023-04-21T23:07:57.438Z,13.31
2023-04-21T23:09:21.004Z,14.33
2023-04-21T23:10:42.900Z,13.03
2023-04-21T23:12:05.045Z,12.85
2023-04-21T23:13:26.373Z,13.64
2023-04-21T23:14:48.926Z,15.65
2023-04-21T23:16:11.800Z,17.94
2023-04-21T23:17:34.511Z,12.96
2023-04-21T23:18:56.478Z,13.68
2023-04-21T23:20:19.156Z,12.13
2023-04-21T23:21:41.433Z,12.62
2023-04-21T23:23:03.382Z,16.76
2023-04-21T23:24:25.720Z,12.44
2023-04-21T23:25:49.059Z,12.08
2023-04-21T23:27:11.411Z,15.84
2023-04-21T23:28:33.612Z,14.09
2023-04-21T23:29:55.399Z,15.61
2023-04-21T23:31:17.240Z,12.31
2023-04-21T23:32:38.601Z,11.51
2023-04-21T23:34:04.248Z,11.58
2023-04-21T23:35:26.851Z,12.43
2023-04-21T23:36:49.217Z,10.68
2023-04-21T23:38:12.089Z,12.26
2023-04-21T23:39:34.401Z,17.61
2023-04-21T23:40:58.194Z,13.52
2023-04-21T23:42:20.292Z,13.45
2023-04-21T23:43:43.287Z,8.66
2023-04-21T23:45:08.154Z,16.04
2023-04-21T23:46:29.852Z,12.59
2023-04-21T23:47:52.342Z,11.08
2023-04-21T23:49:14.990Z,13.54
2023-04-21T23:50:38.338Z,11.81
2023-04-21T23:51:59.897Z,13.13
2023-04-21T23:53:21.848Z,14.10
2023-04-21T23:54:45.620Z,13.57
2023-04-21T23:56:09.420Z,17.12
2023-04-21T23:57:31.672Z,20.41
2023-04-21T23:58:53.038Z,18.41
